Time;durP1;ratioP1;P1;durP2;ratioP2;P2;SDS_P1;SDS_P2;PMS_P1;PMS_P2;Temp;Humidity;BMP_temperature;BMP_pressure;BME280_temperature;BME280_humidity;BME280_pressure;Samples;Min_cycle;Max_cycle;Signal;HPM_P1;HPM_P2
2023/12/23 00:01:10;;;;;;;0.20;0.20;;;;;;;;;;5026230;28;20029;-61
2023/12/23 00:03:36;;;;;;;0.97;0.87;;;;;;;;;;5024261;28;20032;-61
2023/12/23 00:06:01;;;;;;;11.37;1.03;;;;;;;;;;5021152;28;20068;-61
2023/12/23 00:08:26;;;;;;;5.33;0.90;;;;;;;;;;5022121;28;20450;-62
2023/12/23 00:10:51;;;;;;;8.20;1.10;;;;;;;;;;5025891;28;20025;-62
2023/12/23 00:13:17;;;;;;;12.97;1.27;;;;;;;;;;5022237;28;20363;-61
2023/12/23 00:15:42;;;;;;;7.30;1.00;;;;;;;;;;5024048;28;20025;-61
2023/12/23 00:18:08;;;;;;;8.73;1.20;;;;;;;;;;5027513;28;20065;-61
2023/12/23 00:20:33;;;;;;;9.37;1.47;;;;;;;;;;5022528;28;20038;-62
2023/12/23 00:22:59;;;;;;;3.87;0.83;;;;;;;;;;5023311;28;20033;-61
2023/12/23 00:25:24;;;;;;;11.47;1.20;;;;;;;;;;5021709;28;20144;-61
2023/12/23 00:27:50;;;;;;;10.43;1.33;;;;;;;;;;5028428;28;20104;-61
2023/12/23 00:30:15;;;;;;;10.93;1.30;;;;;;;;;;5025529;28;20029;-61
2023/12/23 00:32:41;;;;;;;5.50;1.27;;;;;;;;;;5015343;28;20151;-61
2023/12/23 00:35:07;;;;;;;5.70;1.00;;;;;;;;;;5021291;28;20402;-61
2023/12/23 00:37:32;;;;;;;5.50;0.90;;;;;;;;;;5024514;28;20013;-62
2023/12/23 00:39:57;;;;;;;13.47;1.80;;;;;;;;;;5022835;28;20144;-61
2023/12/23 00:42:23;;;;;;;7.57;1.30;;;;;;;;;;5018819;28;20037;-62
2023/12/23 00:44:48;;;;;;;14.57;1.73;;;;;;;;;;5021364;28;20069;-61
2023/12/23 00:47:14;;;;;;;10.10;1.30;;;;;;;;;;5021034;28;20378;-61
2023/12/23 00:49:39;;;;;;;10.30;1.60;;;;;;;;;;5024613;28;20037;-61
2023/12/23 00:52:05;;;;;;;4.87;0.80;;;;;;;;;;5018506;28;20029;-61
2023/12/23 00:54:30;;;;;;;10.77;1.13;;;;;;;;;;5020630;28;20114;-60
2023/12/23 00:56:56;;;;;;;8.83;1.10;;;;;;;;;;5023086;28;20485;-62
2023/12/23 00:59:21;;;;;;;8.07;1.23;;;;;;;;;;5024536;28;20037;-63
2023/12/23 01:01:47;;;;;;;8.57;1.57;;;;;;;;;;5020592;28;20101;-62
2023/12/23 01:04:12;;;;;;;12.93;2.30;;;;;;;;;;5017954;28;20030;-63
2023/12/23 01:06:37;;;;;;;8.13;1.40;;;;;;;;;;5022874;28;20370;-62
2023/12/23 01:09:04;;;;;;;3.87;1.30;;;;;;;;;;5025187;28;20037;-62
2023/12/23 01:11:29;;;;;;;7.73;1.30;;;;;;;;;;5027191;28;20032;-62
2023/12/23 01:13:54;;;;;;;6.80;1.40;;;;;;;;;;5023703;28;20113;-62
2023/12/23 01:16:19;;;;;;;10.87;1.43;;;;;;;;;;5022344;28;20045;-63
2023/12/23 01:18:45;;;;;;;8.00;1.33;;;;;;;;;;5022779;28;20029;-63
2023/12/23 01:21:10;;;;;;;11.03;1.83;;;;;;;;;;5021094;28;20466;-63
2023/12/23 01:23:35;;;;;;;14.37;2.03;;;;;;;;;;5023388;28;20386;-63
2023/12/23 01:26:00;;;;;;;7.87;1.13;;;;;;;;;;5024475;28;20080;-63
2023/12/23 01:28:26;;;;;;;16.37;1.83;;;;;;;;;;5023765;28;20097;-62
2023/12/23 01:30:51;;;;;;;10.00;1.30;;;;;;;;;;5023391;28;20554;-63
2023/12/23 01:33:16;;;;;;;7.80;1.53;;;;;;;;;;5017654;28;20033;-62
2023/12/23 01:35:41;;;;;;;9.87;1.60;;;;;;;;;;5024952;28;20079;-62
2023/12/23 01:38:07;;;;;;;9.33;1.53;;;;;;;;;;5024070;28;20026;-62
2023/12/23 01:40:32;;;;;;;13.93;1.93;;;;;;;;;;5017845;28;20034;-63
2023/12/23 01:42:58;;;;;;;6.97;1.23;;;;;;;;;;5017868;28;20084;-62
2023/12/23 01:45:23;;;;;;;9.50;1.10;;;;;;;;;;5022583;28;20030;-63
2023/12/23 01:47:49;;;;;;;6.43;1.10;;;;;;;;;;5022955;28;20417;-62
2023/12/23 01:50:15;;;;;;;6.00;0.97;;;;;;;;;;5018240;28;20018;-62
2023/12/23 01:52:40;;;;;;;13.33;1.93;;;;;;;;;;5019716;28;20037;-62
2023/12/23 01:55:06;;;;;;;11.17;1.67;;;;;;;;;;5015674;28;20397;-62
2023/12/23 01:57:32;;;;;;;10.87;1.60;;;;;;;;;;5020579;28;20022;-62
2023/12/23 01:59:57;;;;;;;7.47;2.10;;;;;;;;;;5017633;28;20531;-62
2023/12/23 02:02:23;;;;;;;4.83;0.80;;;;;;;;;;5022190;28;20097;-62
2023/12/23 02:04:48;;;;;;;10.07;1.33;;;;;;;;;;5015419;28;20033;-63
2023/12/23 02:07:14;;;;;;;11.60;1.37;;;;;;;;;;5024072;28;20068;-62
2023/12/23 02:09:39;;;;;;;7.50;0.90;;;;;;;;;;5021976;28;20056;-62
2023/12/23 02:12:04;;;;;;;14.37;1.90;;;;;;;;;;5020945;28;20064;-62
2023/12/23 02:14:40;;;;;;;7.70;1.30;;;;;;;;;;5020128;28;20026;-62
2023/12/23 02:17:06;;;;;;;13.23;1.60;;;;;;;;;;5023283;28;20038;-62
2023/12/23 02:19:31;;;;;;;9.20;1.43;;;;;;;;;;5020438;28;20026;-62
2023/12/23 02:21:56;;;;;;;11.17;1.27;;;;;;;;;;5023848;28;20029;-62
2023/12/23 02:24:22;;;;;;;10.27;1.40;;;;;;;;;;5021780;28;20041;-62
2023/12/23 02:26:50;;;;;;;18.70;2.00;;;;;;;;;;5023452;28;20037;-63
2023/12/23 02:29:16;;;;;;;12.70;1.73;;;;;;;;;;5024649;28;20060;-63
2023/12/23 02:31:42;;;;;;;8.93;1.40;;;;;;;;;;5025362;28;20026;-62
2023/12/23 02:34:08;;;;;;;14.17;1.87;;;;;;;;;;5029124;28;20020;-62
2023/12/23 02:36:33;;;;;;;11.43;1.63;;;;;;;;;;5028248;28;20035;-63
2023/12/23 02:38:59;;;;;;;14.03;1.80;;;;;;;;;;5022116;28;20025;-62
2023/12/23 02:41:24;;;;;;;10.60;1.77;;;;;;;;;;5024880;28;20033;-63
2023/12/23 02:43:49;;;;;;;12.70;1.43;;;;;;;;;;5026171;28;20028;-63
2023/12/23 02:46:14;;;;;;;14.23;1.80;;;;;;;;;;5023260;28;20045;-62
2023/12/23 02:48:40;;;;;;;7.13;1.33;;;;;;;;;;5020748;28;20397;-62
2023/12/23 02:51:05;;;;;;;10.60;1.63;;;;;;;;;;5019248;28;20029;-63
2023/12/23 02:53:30;;;;;;;7.67;1.73;;;;;;;;;;5023332;28;20071;-63
2023/12/23 02:55:55;;;;;;;11.40;1.90;;;;;;;;;;5028063;28;20488;-63
2023/12/23 02:58:21;;;;;;;8.40;1.43;;;;;;;;;;5024695;28;20036;-63
2023/12/23 03:00:46;;;;;;;9.53;1.37;;;;;;;;;;5026042;28;20037;-64
2023/12/23 03:03:11;;;;;;;10.97;2.30;;;;;;;;;;5021553;28;20037;-63
2023/12/23 03:05:36;;;;;;;12.57;1.70;;;;;;;;;;5024315;28;20030;-63
2023/12/23 03:08:02;;;;;;;7.90;1.67;;;;;;;;;;5025143;28;20060;-63
2023/12/23 03:10:27;;;;;;;8.33;1.40;;;;;;;;;;5024740;28;20036;-63
2023/12/23 03:12:52;;;;;;;7.33;2.03;;;;;;;;;;5030967;28;20040;-63
2023/12/23 03:15:18;;;;;;;11.93;1.60;;;;;;;;;;5026215;28;20087;-63
2023/12/23 03:17:43;;;;;;;11.20;1.47;;;;;;;;;;5025900;28;20463;-63
2023/12/23 03:20:09;;;;;;;8.90;1.73;;;;;;;;;;5025721;28;20026;-61
2023/12/23 03:22:34;;;;;;;8.10;1.30;;;;;;;;;;5024437;28;20033;-61
2023/12/23 03:24:59;;;;;;;9.57;1.23;;;;;;;;;;5021567;28;20093;-62
2023/12/23 03:27:24;;;;;;;7.67;1.53;;;;;;;;;;5025990;28;20156;-62
2023/12/23 03:29:50;;;;;;;9.57;1.30;;;;;;;;;;5023985;28;20029;-62
2023/12/23 03:32:15;;;;;;;13.67;1.43;;;;;;;;;;5022769;28;20391;-62
2023/12/23 03:34:41;;;;;;;10.93;1.20;;;;;;;;;;5028072;28;20052;-62
2023/12/23 03:37:06;;;;;;;17.87;2.77;;;;;;;;;;5026177;28;20040;-62
2023/12/23 03:39:31;;;;;;;8.90;1.50;;;;;;;;;;5021532;28;20037;-62
2023/12/23 03:41:57;;;;;;;12.77;2.00;;;;;;;;;;5028018;28;20025;-62
2023/12/23 03:44:22;;;;;;;9.80;1.20;;;;;;;;;;5025880;28;20095;-62
2023/12/23 03:46:47;;;;;;;6.93;1.60;;;;;;;;;;5024119;28;20033;-62
2023/12/23 03:49:13;;;;;;;12.23;2.73;;;;;;;;;;5022950;28;20024;-62
2023/12/23 03:51:38;;;;;;;9.83;1.43;;;;;;;;;;5025277;28;20104;-62
2023/12/23 03:54:03;;;;;;;9.33;1.47;;;;;;;;;;5027757;28;20022;-62
2023/12/23 03:56:29;;;;;;;12.77;1.80;;;;;;;;;;5022895;28;20063;-62
2023/12/23 03:58:54;;;;;;;9.97;1.47;;;;;;;;;;5023467;28;20402;-61
2023/12/23 04:01:19;;;;;;;10.50;1.30;;;;;;;;;;5021223;28;20513;-61
2023/12/23 04:03:45;;;;;;;12.73;1.30;;;;;;;;;;5027106;28;20044;-61
2023/12/23 04:06:11;;;;;;;6.50;1.07;;;;;;;;;;5020587;28;20026;-62
2023/12/23 04:08:38;;;;;;;11.30;1.20;;;;;;;;;;5020074;28;20034;-62
2023/12/23 04:11:03;;;;;;;9.50;2.10;;;;;;;;;;5017435;28;20033;-61
2023/12/23 04:13:29;;;;;;;4.13;1.00;;;;;;;;;;5021803;28;20474;-62
2023/12/23 04:15:54;;;;;;;7.23;1.33;;;;;;;;;;5013268;28;20041;-62
2023/12/23 04:18:20;;;;;;;10.87;1.30;;;;;;;;;;5018293;28;20113;-61
2023/12/23 04:20:45;;;;;;;9.57;1.27;;;;;;;;;;5017527;28;20115;-62
2023/12/23 04:23:11;;;;;;;5.43;1.53;;;;;;;;;;5020893;28;20029;-62
2023/12/23 04:25:37;;;;;;;8.47;1.30;;;;;;;;;;5026560;28;20499;-62
2023/12/23 04:28:02;;;;;;;5.20;0.97;;;;;;;;;;5024133;28;20439;-62
2023/12/23 04:30:27;;;;;;;8.73;1.20;;;;;;;;;;5022428;28;20022;-62
2023/12/23 04:32:52;;;;;;;7.13;1.40;;;;;;;;;;5021840;28;20100;-62
2023/12/23 04:35:18;;;;;;;8.33;1.07;;;;;;;;;;5024720;28;20363;-62
2023/12/23 04:37:44;;;;;;;6.37;1.17;;;;;;;;;;5022817;28;20037;-62
2023/12/23 04:40:10;;;;;;;2.13;0.77;;;;;;;;;;5020509;28;20031;-65
2023/12/23 04:42:36;;;;;;;4.43;1.00;;;;;;;;;;5021045;28;20033;-64
2023/12/23 04:45:01;;;;;;;6.83;0.97;;;;;;;;;;5025446;28;20014;-64
2023/12/23 04:47:27;;;;;;;14.90;1.10;;;;;;;;;;5023543;28;20478;-64
2023/12/23 04:49:52;;;;;;;9.17;1.13;;;;;;;;;;5022152;28;20036;-64
2023/12/23 04:52:17;;;;;;;4.20;0.87;;;;;;;;;;5021938;28;20017;-64
2023/12/23 04:54:42;;;;;;;8.60;1.47;;;;;;;;;;5022365;28;20072;-64
2023/12/23 04:57:08;;;;;;;12.57;1.20;;;;;;;;;;5021526;28;20041;-65
2023/12/23 04:59:33;;;;;;;4.47;0.87;;;;;;;;;;5026097;28;20028;-64
2023/12/23 05:01:58;;;;;;;0.30;0.30;;;;;;;;;;5026005;28;20026;-64
2023/12/23 05:04:23;;;;;;;0.20;0.20;;;;;;;;;;5028615;28;20030;-64
2023/12/23 05:06:49;;;;;;;0.20;0.20;;;;;;;;;;5024947;28;20120;-64
2023/12/23 05:09:14;;;;;;;0.20;0.20;;;;;;;;;;5019775;28;20022;-64
2023/12/23 05:11:40;;;;;;;1.90;0.33;;;;;;;;;;5023767;28;20076;-64
2023/12/23 05:14:05;;;;;;;0.20;0.20;;;;;;;;;;5024450;28;20043;-64
2023/12/23 05:16:30;;;;;;;0.20;0.20;;;;;;;;;;5024033;28;20025;-64
2023/12/23 05:18:55;;;;;;;0.20;0.20;;;;;;;;;;5014631;28;20064;-64
2023/12/23 05:21:21;;;;;;;0.30;0.30;;;;;;;;;;5024635;28;20084;-64
2023/12/23 05:23:46;;;;;;;0.20;0.20;;;;;;;;;;5023480;28;20025;-64
2023/12/23 05:26:12;;;;;;;0.20;0.20;;;;;;;;;;5025887;28;20054;-64
2023/12/23 05:28:37;;;;;;;0.23;0.23;;;;;;;;;;5018244;28;20034;-64
2023/12/23 05:31:02;;;;;;;0.20;0.20;;;;;;;;;;5023990;28;20032;-64
2023/12/23 05:33:27;;;;;;;0.20;0.20;;;;;;;;;;5026701;28;20022;-64
2023/12/23 05:35:53;;;;;;;0.20;0.20;;;;;;;;;;5028483;28;20029;-64
2023/12/23 05:38:18;;;;;;;0.30;0.30;;;;;;;;;;5017242;28;20029;-64
2023/12/23 05:40:43;;;;;;;0.40;0.40;;;;;;;;;;5018527;28;20393;-64
2023/12/23 05:43:08;;;;;;;0.30;0.30;;;;;;;;;;5026873;28;20038;-64
2023/12/23 05:45:34;;;;;;;0.20;0.20;;;;;;;;;;5025258;28;20425;-64
2023/12/23 05:47:59;;;;;;;0.20;0.20;;;;;;;;;;5021536;28;20101;-64
2023/12/23 05:50:24;;;;;;;0.20;0.20;;;;;;;;;;5020151;28;20047;-63
2023/12/23 05:52:50;;;;;;;0.20;0.20;;;;;;;;;;5023431;28;20079;-63
2023/12/23 05:55:15;;;;;;;0.20;0.20;;;;;;;;;;5023358;28;20029;-63
2023/12/23 05:57:40;;;;;;;0.20;0.20;;;;;;;;;;5022379;28;20136;-63
2023/12/23 06:00:06;;;;;;;0.20;0.20;;;;;;;;;;5022265;28;20025;-63
2023/12/23 06:02:31;;;;;;;0.20;0.20;;;;;;;;;;5026152;28;20417;-63
2023/12/23 06:04:57;;;;;;;3.43;0.53;;;;;;;;;;5023114;28;20022;-62
2023/12/23 06:07:22;;;;;;;0.20;0.20;;;;;;;;;;5025747;28;20025;-63
2023/12/23 06:09:47;;;;;;;0.20;0.20;;;;;;;;;;5029879;28;20026;-63
2023/12/23 06:12:12;;;;;;;0.20;0.20;;;;;;;;;;5026066;28;20059;-63
2023/12/23 06:14:39;;;;;;;0.20;0.20;;;;;;;;;;5023574;28;20025;-64
2023/12/23 06:17:04;;;;;;;0.20;0.20;;;;;;;;;;5021999;28;20037;-63
2023/12/23 06:19:29;;;;;;;0.20;0.20;;;;;;;;;;5025150;28;20398;-64
2023/12/23 06:21:55;;;;;;;0.20;0.20;;;;;;;;;;5026316;28;20026;-63
2023/12/23 06:24:20;;;;;;;0.20;0.20;;;;;;;;;;5020114;28;20045;-63
2023/12/23 06:26:45;;;;;;;0.20;0.20;;;;;;;;;;5025940;28;20046;-64
2023/12/23 06:29:10;;;;;;;0.20;0.20;;;;;;;;;;5022759;28;20026;-63
2023/12/23 06:31:36;;;;;;;0.20;0.20;;;;;;;;;;5025205;28;20037;-63
2023/12/23 06:34:01;;;;;;;0.20;0.20;;;;;;;;;;5029989;28;20033;-63
2023/12/23 06:36:26;;;;;;;0.20;0.20;;;;;;;;;;5020889;28;20625;-63
2023/12/23 06:38:51;;;;;;;0.20;0.20;;;;;;;;;;5022184;28;20034;-63
2023/12/23 06:41:17;;;;;;;0.20;0.20;;;;;;;;;;5022641;28;20022;-63
2023/12/23 06:43:42;;;;;;;0.20;0.20;;;;;;;;;;5027809;28;20105;-64
2023/12/23 06:46:10;;;;;;;0.20;0.20;;;;;;;;;;5022813;28;20437;-64
2023/12/23 06:48:36;;;;;;;0.20;0.20;;;;;;;;;;5024227;28;20474;-63
2023/12/23 06:51:01;;;;;;;0.20;0.20;;;;;;;;;;5030939;28;20087;-63
2023/12/23 06:53:26;;;;;;;0.27;0.27;;;;;;;;;;5027601;28;20438;-64
2023/12/23 06:55:52;;;;;;;0.40;0.40;;;;;;;;;;5025875;28;20101;-64
2023/12/23 06:58:17;;;;;;;0.20;0.20;;;;;;;;;;5024131;28;20445;-64
2023/12/23 07:00:43;;;;;;;0.20;0.20;;;;;;;;;;5032335;28;20282;-63
2023/12/23 07:03:08;;;;;;;0.20;0.20;;;;;;;;;;5025720;28;20026;-63
2023/12/23 07:05:33;;;;;;;0.20;0.20;;;;;;;;;;5028787;28;20032;-64
2023/12/23 07:07:58;;;;;;;0.20;0.20;;;;;;;;;;5026035;28;20018;-64
2023/12/23 07:10:24;;;;;;;0.20;0.20;;;;;;;;;;5024377;28;20033;-64
2023/12/23 07:12:49;;;;;;;0.27;0.27;;;;;;;;;;5024715;28;20108;-63
2023/12/23 07:15:14;;;;;;;0.20;0.20;;;;;;;;;;5026239;28;20026;-63
2023/12/23 07:17:40;;;;;;;0.20;0.20;;;;;;;;;;5026912;28;20075;-63
2023/12/23 07:20:07;;;;;;;0.20;0.20;;;;;;;;;;5026098;28;20037;-64
2023/12/23 07:22:32;;;;;;;0.20;0.20;;;;;;;;;;5025276;28;20041;-63
2023/12/23 07:24:57;;;;;;;0.20;0.20;;;;;;;;;;5021651;28;20053;-64
2023/12/23 07:27:23;;;;;;;0.20;0.20;;;;;;;;;;5019972;28;20511;-66
2023/12/23 07:29:48;;;;;;;0.20;0.20;;;;;;;;;;5025237;28;20039;-64
2023/12/23 07:32:14;;;;;;;0.20;0.20;;;;;;;;;;5026872;28;20026;-63
2023/12/23 07:34:39;;;;;;;0.70;0.43;;;;;;;;;;5011169;28;20021;-63
2023/12/23 07:37:04;;;;;;;0.20;0.20;;;;;;;;;;5017951;28;20040;-63
2023/12/23 07:39:30;;;;;;;0.20;0.20;;;;;;;;;;5032817;28;20470;-64
2023/12/23 07:41:57;;;;;;;0.20;0.20;;;;;;;;;;5019707;28;20459;-64
2023/12/23 07:44:22;;;;;;;0.20;0.20;;;;;;;;;;5020486;28;20079;-64
2023/12/23 07:46:47;;;;;;;0.40;0.40;;;;;;;;;;5020447;28;20478;-66
2023/12/23 07:49:13;;;;;;;0.20;0.20;;;;;;;;;;5019676;28;20025;-64
2023/12/23 07:51:39;;;;;;;0.20;0.20;;;;;;;;;;5026182;28;20108;-63
2023/12/23 07:54:04;;;;;;;0.27;0.27;;;;;;;;;;5018248;28;20025;-63
2023/12/23 07:56:29;;;;;;;0.20;0.20;;;;;;;;;;5020857;28;20552;-64
2023/12/23 07:58:57;;;;;;;0.20;0.20;;;;;;;;;;5021683;28;20070;-65
2023/12/23 08:01:22;;;;;;;0.30;0.30;;;;;;;;;;5022776;28;20029;-64
2023/12/23 08:03:48;;;;;;;0.20;0.20;;;;;;;;;;5023769;28;20040;-66
2023/12/23 08:06:15;;;;;;;0.20;0.20;;;;;;;;;;5022177;28;20034;-64
2023/12/23 08:08:40;;;;;;;0.20;0.20;;;;;;;;;;5023400;28;20017;-65
2023/12/23 08:11:06;;;;;;;0.20;0.20;;;;;;;;;;5024918;28;20022;-66
2023/12/23 08:13:31;;;;;;;0.20;0.20;;;;;;;;;;5024587;28;20057;-64
2023/12/23 08:15:56;;;;;;;0.20;0.20;;;;;;;;;;5025666;28;20029;-64
2023/12/23 08:18:21;;;;;;;0.20;0.20;;;;;;;;;;5022273;28;20028;-65
2023/12/23 08:20:47;;;;;;;0.20;0.20;;;;;;;;;;5025148;28;20083;-64
2023/12/23 08:23:12;;;;;;;0.50;0.50;;;;;;;;;;5022006;28;20504;-64
2023/12/23 08:25:37;;;;;;;0.20;0.20;;;;;;;;;;5023156;28;20088;-64
2023/12/23 08:28:03;;;;;;;0.27;0.27;;;;;;;;;;5023764;28;20371;-64
2023/12/23 08:30:28;;;;;;;0.30;0.30;;;;;;;;;;5023501;28;20129;-64
2023/12/23 08:32:54;;;;;;;0.20;0.20;;;;;;;;;;5024202;28;20104;-64
2023/12/23 08:35:19;;;;;;;0.20;0.20;;;;;;;;;;5022448;28;20108;-64
2023/12/23 08:37:45;;;;;;;0.20;0.20;;;;;;;;;;5029750;28;20474;-64
2023/12/23 08:40:11;;;;;;;0.30;0.30;;;;;;;;;;5023359;28;20064;-65
2023/12/23 08:42:36;;;;;;;0.30;0.30;;;;;;;;;;5026187;28;20565;-65
2023/12/23 08:45:01;;;;;;;0.20;0.20;;;;;;;;;;5016002;28;20026;-64
2023/12/23 08:47:26;;;;;;;0.47;0.47;;;;;;;;;;5022050;28;20029;-64
2023/12/23 08:49:52;;;;;;;0.20;0.20;;;;;;;;;;5023943;28;20108;-64
2023/12/23 08:52:17;;;;;;;0.20;0.20;;;;;;;;;;5025263;28;20032;-64
2023/12/23 08:54:42;;;;;;;0.33;0.33;;;;;;;;;;5012951;28;20022;-64
2023/12/23 08:57:08;;;;;;;0.20;0.20;;;;;;;;;;5020915;28;20029;-64
2023/12/23 08:59:33;;;;;;;0.20;0.20;;;;;;;;;;5026211;28;20038;-64
2023/12/23 09:02:02;;;;;;;0.30;0.30;;;;;;;;;;5026657;28;20391;-64
2023/12/23 09:04:27;;;;;;;0.20;0.20;;;;;;;;;;5021962;28;20404;-64
2023/12/23 09:06:52;;;;;;;0.23;0.23;;;;;;;;;;5017983;28;20018;-64
2023/12/23 09:09:18;;;;;;;0.20;0.20;;;;;;;;;;5029857;28;20033;-64
2023/12/23 09:11:43;;;;;;;0.20;0.20;;;;;;;;;;5026837;28;20022;-65
2023/12/23 09:14:09;;;;;;;0.57;0.50;;;;;;;;;;5026588;28;20526;-64
2023/12/23 09:16:35;;;;;;;0.20;0.20;;;;;;;;;;5022003;28;20034;-64
2023/12/23 09:19:00;;;;;;;0.20;0.20;;;;;;;;;;5021933;28;20097;-64
2023/12/23 09:21:25;;;;;;;0.20;0.20;;;;;;;;;;5032418;28;20029;-64
2023/12/23 09:23:51;;;;;;;0.20;0.20;;;;;;;;;;5029841;28;20478;-65
2023/12/23 09:26:16;;;;;;;0.20;0.20;;;;;;;;;;5033981;28;20057;-64
2023/12/23 09:28:41;;;;;;;0.20;0.20;;;;;;;;;;5023388;28;20057;-63
2023/12/23 09:31:06;;;;;;;0.20;0.20;;;;;;;;;;5022916;28;20101;-63
2023/12/23 09:33:32;;;;;;;0.33;0.33;;;;;;;;;;5028761;28;20371;-63
2023/12/23 09:35:57;;;;;;;0.20;0.20;;;;;;;;;;5022690;28;20101;-63
2023/12/23 09:38:22;;;;;;;0.20;0.20;;;;;;;;;;5022751;28;20033;-63
2023/12/23 09:40:47;;;;;;;0.20;0.20;;;;;;;;;;5019618;28;20033;-63
2023/12/23 09:43:14;;;;;;;0.30;0.30;;;;;;;;;;5020636;28;20029;-63
2023/12/23 09:45:40;;;;;;;0.20;0.20;;;;;;;;;;5025011;28;20030;-64
2023/12/23 09:48:05;;;;;;;0.30;0.30;;;;;;;;;;5021337;28;20034;-63
2023/12/23 09:50:30;;;;;;;0.30;0.30;;;;;;;;;;5015798;28;20022;-63
2023/12/23 09:52:58;;;;;;;0.20;0.20;;;;;;;;;;5017719;28;20026;-64
2023/12/23 09:55:24;;;;;;;0.20;0.20;;;;;;;;;;5020808;28;20486;-63
2023/12/23 09:57:49;;;;;;;0.20;0.20;;;;;;;;;;5020827;28;20104;-63
2023/12/23 10:00:15;;;;;;;0.20;0.20;;;;;;;;;;5021193;28;20251;-63
2023/12/23 10:02:40;;;;;;;0.20;0.20;;;;;;;;;;5022610;28;20022;-63
2023/12/23 10:05:06;;;;;;;0.20;0.20;;;;;;;;;;5024483;28;20108;-64
2023/12/23 10:07:31;;;;;;;0.20;0.20;;;;;;;;;;5028458;28;20029;-64
2023/12/23 10:09:57;;;;;;;0.20;0.20;;;;;;;;;;5017186;28;20033;-63
2023/12/23 10:12:23;;;;;;;0.20;0.20;;;;;;;;;;5016577;28;20022;-63
2023/12/23 10:14:49;;;;;;;0.20;0.20;;;;;;;;;;5016240;28;20100;-63
2023/12/23 10:17:14;;;;;;;0.20;0.20;;;;;;;;;;5023204;28;20026;-63
2023/12/23 10:19:39;;;;;;;0.20;0.20;;;;;;;;;;5022803;28;20488;-63
2023/12/23 10:22:05;;;;;;;0.40;0.40;;;;;;;;;;5022569;28;20038;-63
2023/12/23 10:24:30;;;;;;;0.20;0.20;;;;;;;;;;5018180;28;20062;-63
2023/12/23 10:26:56;;;;;;;0.20;0.20;;;;;;;;;;5023379;28;20544;-63
2023/12/23 10:29:23;;;;;;;5.30;0.67;;;;;;;;;;5021418;28;20029;-62
2023/12/23 10:31:51;;;;;;;0.20;0.20;;;;;;;;;;5022160;28;20087;-62
2023/12/23 10:34:20;;;;;;;0.20;0.20;;;;;;;;;;5021710;28;20114;-63
2023/12/23 10:36:45;;;;;;;0.20;0.20;;;;;;;;;;5022584;28;20029;-63
2023/12/23 10:39:17;;;;;;;0.30;0.30;;;;;;;;;;5022288;28;20363;-63
2023/12/23 10:41:48;;;;;;;1.20;0.97;;;;;;;;;;5021842;28;20030;-63
2023/12/23 10:44:14;;;;;;;1.03;0.73;;;;;;;;;;5020998;28;20081;-63
2023/12/23 10:46:40;;;;;;;0.20;0.20;;;;;;;;;;5022130;28;20025;-63
2023/12/23 10:49:06;;;;;;;0.20;0.20;;;;;;;;;;5023965;28;20068;-63
2023/12/23 10:51:32;;;;;;;0.23;0.23;;;;;;;;;;5023079;28;20060;-63
2023/12/23 10:53:58;;;;;;;0.30;0.30;;;;;;;;;;5028914;28;20025;-63
2023/12/23 10:56:25;;;;;;;0.20;0.20;;;;;;;;;;5028234;28;20029;-63
2023/12/23 10:58:51;;;;;;;0.20;0.20;;;;;;;;;;5022404;28;20026;-63
2023/12/23 11:01:19;;;;;;;0.10;0.10;;;;;;;;;;5017678;28;20018;-63
2023/12/23 11:03:45;;;;;;;0.67;0.67;;;;;;;;;;5019846;28;20036;-63
2023/12/23 11:06:13;;;;;;;0.20;0.20;;;;;;;;;;5024974;28;20021;-63
2023/12/23 11:08:39;;;;;;;0.20;0.20;;;;;;;;;;5011233;28;20016;-63
2023/12/23 11:11:04;;;;;;;0.20;0.20;;;;;;;;;;5021723;28;20040;-63
2023/12/23 11:13:30;;;;;;;0.20;0.20;;;;;;;;;;5023460;28;20033;-64
2023/12/23 11:15:56;;;;;;;0.20;0.20;;;;;;;;;;5022709;28;20113;-63
2023/12/23 11:18:21;;;;;;;0.20;0.20;;;;;;;;;;5019920;28;20116;-63
2023/12/23 11:20:50;;;;;;;0.20;0.20;;;;;;;;;;5017713;28;20095;-63
2023/12/23 11:23:33;;;;;;;0.20;0.20;;;;;;;;;;5022036;28;20034;-63
2023/12/23 11:25:59;;;;;;;0.30;0.30;;;;;;;;;;5029896;28;20064;-62
2023/12/23 11:28:28;;;;;;;0.20;0.20;;;;;;;;;;5021480;28;20021;-63
2023/12/23 11:30:57;;;;;;;0.47;0.47;;;;;;;;;;5019754;28;20083;-63
2023/12/23 11:33:24;;;;;;;0.20;0.20;;;;;;;;;;5021334;28;20049;-62
2023/12/23 11:35:59;;;;;;;0.20;0.20;;;;;;;;;;5027367;28;20168;-62
2023/12/23 11:38:28;;;;;;;0.20;0.20;;;;;;;;;;5023736;28;20061;-62
2023/12/23 11:40:54;;;;;;;0.20;0.20;;;;;;;;;;5023098;28;20021;-63
2023/12/23 11:43:19;;;;;;;0.20;0.20;;;;;;;;;;5022823;28;20034;-63
2023/12/23 11:45:44;;;;;;;0.20;0.20;;;;;;;;;;5023985;28;20106;-62
2023/12/23 11:48:10;;;;;;;0.20;0.20;;;;;;;;;;5023381;28;20034;-62
2023/12/23 11:50:35;;;;;;;0.20;0.20;;;;;;;;;;5025155;28;20517;-63
2023/12/23 11:53:00;;;;;;;0.20;0.20;;;;;;;;;;5024872;28;20022;-62
2023/12/23 11:55:26;;;;;;;0.20;0.20;;;;;;;;;;5023542;28;20026;-62
2023/12/23 11:57:51;;;;;;;0.33;0.33;;;;;;;;;;5021765;28;20018;-63
2023/12/23 12:00:17;;;;;;;0.20;0.20;;;;;;;;;;5018857;28;20091;-63
2023/12/23 12:02:42;;;;;;;0.20;0.20;;;;;;;;;;5026521;28;20025;-62
2023/12/23 12:05:08;;;;;;;0.20;0.20;;;;;;;;;;5025772;28;20076;-62
2023/12/23 12:07:34;;;;;;;0.57;0.57;;;;;;;;;;5020240;28;20112;-62
2023/12/23 12:09:59;;;;;;;0.20;0.20;;;;;;;;;;5020448;28;20045;-62
2023/12/23 12:12:26;;;;;;;0.30;0.30;;;;;;;;;;5019268;28;20135;-62
2023/12/23 12:14:51;;;;;;;0.40;0.40;;;;;;;;;;5024273;28;20021;-62
2023/12/23 12:17:16;;;;;;;0.20;0.20;;;;;;;;;;5020392;28;20028;-63
2023/12/23 12:19:41;;;;;;;0.40;0.40;;;;;;;;;;5018544;28;20391;-63
2023/12/23 12:22:07;;;;;;;0.20;0.20;;;;;;;;;;5013146;28;20050;-63
2023/12/23 12:24:34;;;;;;;0.20;0.20;;;;;;;;;;5014953;28;20049;-63
2023/12/23 12:26:59;;;;;;;0.53;0.53;;;;;;;;;;5022290;28;20108;-63
2023/12/23 12:29:25;;;;;;;2.33;1.53;;;;;;;;;;5018555;28;20125;-63
2023/12/23 12:31:50;;;;;;;0.20;0.20;;;;;;;;;;5016932;28;20030;-63
2023/12/23 12:34:16;;;;;;;0.33;0.30;;;;;;;;;;5025503;28;20029;-64
2023/12/23 12:36:41;;;;;;;0.37;0.37;;;;;;;;;;5023495;28;20022;-63
2023/12/23 12:39:06;;;;;;;0.30;0.30;;;;;;;;;;5021832;28;20061;-63
2023/12/23 12:41:37;;;;;;;0.20;0.20;;;;;;;;;;5018277;28;20038;-64
2023/12/23 12:44:02;;;;;;;0.40;0.40;;;;;;;;;;5025688;28;20082;-64
2023/12/23 12:46:31;;;;;;;0.20;0.20;;;;;;;;;;5025896;28;20029;-63
2023/12/23 12:48:57;;;;;;;0.67;0.67;;;;;;;;;;5028916;28;20467;-63
2023/12/23 12:51:22;;;;;;;0.20;0.20;;;;;;;;;;5022439;28;20025;-63
2023/12/23 12:53:47;;;;;;;0.20;0.20;;;;;;;;;;5023340;28;20074;-63
2023/12/23 12:56:14;;;;;;;0.20;0.20;;;;;;;;;;5023874;28;20025;-63
2023/12/23 12:58:40;;;;;;;0.20;0.20;;;;;;;;;;5022157;28;20037;-62
2023/12/23 13:01:06;;;;;;;0.20;0.20;;;;;;;;;;5024190;28;20037;-63
2023/12/23 13:03:31;;;;;;;1.10;0.80;;;;;;;;;;5025930;28;20029;-63
2023/12/23 13:05:56;;;;;;;0.67;0.50;;;;;;;;;;5019912;28;20029;-63
2023/12/23 13:08:22;;;;;;;0.20;0.20;;;;;;;;;;5026941;28;20097;-63
2023/12/23 13:10:47;;;;;;;0.30;0.30;;;;;;;;;;5025759;28;20017;-63
2023/12/23 13:13:14;;;;;;;0.20;0.20;;;;;;;;;;5024225;28;20049;-63
2023/12/23 13:15:39;;;;;;;0.67;0.60;;;;;;;;;;5017636;28;20022;-63
2023/12/23 13:18:05;;;;;;;0.20;0.20;;;;;;;;;;5022523;28;20025;-63
2023/12/23 13:20:30;;;;;;;1.87;1.33;;;;;;;;;;5019982;28;20032;-63
2023/12/23 13:22:55;;;;;;;0.17;0.17;;;;;;;;;;5024948;28;20025;-62
2023/12/23 13:25:21;;;;;;;0.20;0.20;;;;;;;;;;5030411;28;20038;-63
2023/12/23 13:27:46;;;;;;;0.20;0.20;;;;;;;;;;5019453;28;20042;-62
2023/12/23 13:30:11;;;;;;;0.20;0.20;;;;;;;;;;5023498;28;20034;-62
2023/12/23 13:32:37;;;;;;;0.30;0.30;;;;;;;;;;5018432;28;20101;-62
2023/12/23 13:35:02;;;;;;;0.40;0.33;;;;;;;;;;5020028;28;20032;-62
2023/12/23 13:37:28;;;;;;;0.33;0.33;;;;;;;;;;5016550;28;20049;-62
2023/12/23 13:39:53;;;;;;;0.20;0.20;;;;;;;;;;5019180;28;20048;-62
2023/12/23 13:42:19;;;;;;;0.20;0.20;;;;;;;;;;5018926;28;20052;-62
2023/12/23 13:44:45;;;;;;;0.20;0.20;;;;;;;;;;5025466;28;20282;-62
2023/12/23 13:47:10;;;;;;;0.20;0.20;;;;;;;;;;5018636;28;20061;-62
2023/12/23 13:49:35;;;;;;;0.17;0.17;;;;;;;;;;5019091;28;20025;-62
2023/12/23 13:52:01;;;;;;;0.50;0.50;;;;;;;;;;5019690;28;20101;-62
2023/12/23 13:54:26;;;;;;;0.30;0.30;;;;;;;;;;5025739;28;20356;-62
2023/12/23 13:56:52;;;;;;;0.30;0.30;;;;;;;;;;5021956;28;20046;-62
2023/12/23 13:59:17;;;;;;;0.40;0.40;;;;;;;;;;5022166;28;20041;-62
2023/12/23 14:01:42;;;;;;;0.40;0.40;;;;;;;;;;5020570;28;20061;-63
2023/12/23 14:04:08;;;;;;;0.20;0.20;;;;;;;;;;5023091;28;20029;-63
2023/12/23 14:06:33;;;;;;;0.30;0.30;;;;;;;;;;5023557;28;20377;-64
2023/12/23 14:08:59;;;;;;;0.20;0.20;;;;;;;;;;5024469;28;20025;-64
2023/12/23 14:11:24;;;;;;;0.13;0.13;;;;;;;;;;5023036;28;20398;-63
2023/12/23 14:13:49;;;;;;;0.20;0.20;;;;;;;;;;5021824;28;20080;-63
2023/12/23 14:16:15;;;;;;;0.30;0.30;;;;;;;;;;5019964;28;20080;-63
2023/12/23 14:18:40;;;;;;;0.70;0.70;;;;;;;;;;5022007;28;20036;-63
2023/12/23 14:21:06;;;;;;;0.30;0.30;;;;;;;;;;5025847;28;20037;-63
2023/12/23 14:23:31;;;;;;;0.20;0.20;;;;;;;;;;5022456;28;20105;-63
2023/12/23 14:25:57;;;;;;;1.20;0.50;;;;;;;;;;5021259;28;20154;-63
2023/12/23 14:28:22;;;;;;;0.27;0.27;;;;;;;;;;5021019;28;20030;-63
2023/12/23 14:30:47;;;;;;;0.20;0.20;;;;;;;;;;5028628;28;20030;-64